KAWM/AWM METAR and TAF weather

Enter ICAO airport designator
Station Type Date Time Source
KAWM METAR 2022/06/26 06:53 UTC NOAA

KAWM 260653Z AUTO 00000KT 1 1/4SM HZ CLR 24/20 A2999 RMK AO2 SLP150 T02440200


Station Type Date Time Source
KAWM Decoded METAR 2022/06/26 06:53 UTC NOAA

WEST MEMPHIS MUNICIPAL AIRPORT, AR, United States (KAWM) 35-08N 090-14W
Jun 26, 2022 - 02:53 AM EDT / 2022.06.26 0653 UTC
Wind: Calm:0
Visibility: 1 1/4 mile(s):0
Sky conditions: clear
Weather: haze
Temperature: 75.9 F (24.4 C)
Dew Point: 68.0 F (20.0 C)
Relative Humidity: 76%
Pressure (altimeter): 29.99 in. Hg (1015 hPa)
ob: KAWM 260653Z AUTO 00000KT 1 1/4SM HZ CLR 24/20 A2999 RMK AO2 SLP150 T02440200
cycle: 7

Station Type Date Time Source
KAWM TAF UTC NOAA

Error!

Example: see airport list